createdAt,value
2018-06-23T00:00:53.646Z,0.00
2018-06-23T00:01:53.646Z,0.00
2018-06-23T00:02:53.635Z,0.00
2018-06-23T00:03:53.636Z,0.00
2018-06-23T00:04:53.631Z,0.00
2018-06-23T00:05:53.628Z,0.00
2018-06-23T00:06:53.625Z,0.00
2018-06-23T00:07:53.618Z,0.00
2018-06-23T00:08:53.621Z,0.00
2018-06-23T00:09:53.614Z,0.00
2018-06-23T00:10:53.608Z,0.00
2018-06-23T00:11:53.605Z,0.00
2018-06-23T00:12:53.600Z,0.00
2018-06-23T00:13:53.598Z,0.00
2018-06-23T00:14:53.595Z,0.00
2018-06-23T00:15:53.589Z,0.00
2018-06-23T00:16:53.585Z,0.00
2018-06-23T00:17:53.581Z,0.00
2018-06-23T00:18:53.576Z,0.00
2018-06-23T00:19:53.573Z,0.00
2018-06-23T00:20:53.568Z,0.00
2018-06-23T00:21:53.563Z,0.00
2018-06-23T00:22:53.561Z,0.00
2018-06-23T00:23:53.558Z,0.00
2018-06-23T00:24:53.553Z,0.00
2018-06-23T00:25:53.549Z,0.00
2018-06-23T00:26:53.546Z,0.00
2018-06-23T00:27:53.542Z,0.00
2018-06-23T00:28:53.537Z,0.00
2018-06-23T00:29:53.534Z,0.00
2018-06-23T00:30:53.531Z,0.00
2018-06-23T00:31:53.526Z,0.00
2018-06-23T00:32:53.521Z,0.00
2018-06-23T00:33:53.520Z,0.00
2018-06-23T00:34:53.519Z,0.00
2018-06-23T00:35:53.512Z,0.00
2018-06-23T00:36:53.517Z,0.00
2018-06-23T00:37:53.503Z,0.00
2018-06-23T00:38:53.499Z,0.00
2018-06-23T00:39:53.498Z,0.00
2018-06-23T00:40:53.495Z,0.00
2018-06-23T00:41:53.486Z,0.00
2018-06-23T00:42:53.482Z,0.00
2018-06-23T00:43:53.479Z,0.00
2018-06-23T00:44:53.473Z,0.00
2018-06-23T00:45:53.472Z,0.00
2018-06-23T00:46:53.464Z,0.00
2018-06-23T00:47:53.462Z,0.00
2018-06-23T00:48:53.462Z,0.00
2018-06-23T00:49:53.456Z,0.00
2018-06-23T00:50:53.450Z,0.00
2018-06-23T00:51:53.445Z,0.00
2018-06-23T00:52:53.442Z,0.00
2018-06-23T00:53:53.436Z,0.00
2018-06-23T00:54:53.432Z,0.00
2018-06-23T00:55:53.430Z,0.00
2018-06-23T00:56:53.424Z,0.00
2018-06-23T00:57:53.418Z,0.00
2018-06-23T00:58:53.416Z,0.00
2018-06-23T00:59:53.412Z,0.00
2018-06-23T01:00:53.407Z,0.00
2018-06-23T01:01:53.404Z,0.00
2018-06-23T01:02:53.397Z,0.00
2018-06-23T01:03:53.396Z,0.00
2018-06-23T01:04:53.393Z,0.00
2018-06-23T01:05:53.386Z,0.00
2018-06-23T01:06:53.382Z,0.00
2018-06-23T01:07:53.380Z,0.00
2018-06-23T01:08:53.377Z,0.00
2018-06-23T01:09:53.372Z,0.00
2018-06-23T01:10:53.366Z,0.00
2018-06-23T01:11:53.361Z,0.00
2018-06-23T01:12:53.357Z,0.00
2018-06-23T01:13:53.352Z,0.00
2018-06-23T01:14:53.348Z,0.00
2018-06-23T01:15:53.350Z,0.00
2018-06-23T01:16:53.338Z,0.00
2018-06-23T01:17:53.335Z,0.00
2018-06-23T01:18:53.331Z,0.00
2018-06-23T01:19:53.327Z,0.00
2018-06-23T01:20:53.322Z,0.00
2018-06-23T01:21:53.317Z,0.00
2018-06-23T01:22:53.312Z,0.00
2018-06-23T01:23:53.309Z,0.00
2018-06-23T01:24:53.308Z,0.00
2018-06-23T01:25:53.300Z,0.00
2018-06-23T01:26:53.297Z,0.00
2018-06-23T01:27:53.294Z,0.00
2018-06-23T01:28:53.287Z,0.00
2018-06-23T01:29:53.285Z,0.00
2018-06-23T01:30:53.278Z,0.00
2018-06-23T01:31:53.274Z,0.00
2018-06-23T01:32:53.268Z,0.00
2018-06-23T01:33:53.261Z,0.00
2018-06-23T01:34:53.259Z,0.00
2018-06-23T01:35:53.259Z,0.00
2018-06-23T01:36:53.252Z,0.00
2018-06-23T01:37:53.247Z,0.00
2018-06-23T01:38:53.243Z,0.00
2018-06-23T01:39:53.241Z,0.00
2018-06-23T01:40:53.235Z,0.00
2018-06-23T01:41:53.229Z,0.00
2018-06-23T01:42:53.232Z,0.00
2018-06-23T01:43:53.226Z,0.00
2018-06-23T01:44:53.217Z,0.00
2018-06-23T01:45:53.215Z,0.00
2018-06-23T01:46:53.209Z,0.00
2018-06-23T01:47:53.204Z,0.00
2018-06-23T01:48:53.200Z,0.00
2018-06-23T01:49:53.196Z,0.00
2018-06-23T01:50:53.191Z,0.00
2018-06-23T01:51:53.187Z,0.00
2018-06-23T01:52:53.182Z,0.00
2018-06-23T01:53:53.178Z,0.00
2018-06-23T01:54:53.171Z,0.00
2018-06-23T01:55:53.168Z,0.00
2018-06-23T01:56:53.162Z,0.00
2018-06-23T01:57:53.158Z,0.00
2018-06-23T01:58:53.153Z,0.00
2018-06-23T01:59:53.151Z,0.00
2018-06-23T02:00:53.146Z,0.00
2018-06-23T02:01:53.144Z,0.00
2018-06-23T02:02:53.134Z,0.00
2018-06-23T02:03:53.133Z,0.00
2018-06-23T02:04:53.129Z,0.00
2018-06-23T02:05:53.122Z,0.00
2018-06-23T02:06:53.118Z,0.00
2018-06-23T02:07:53.115Z,0.00
2018-06-23T02:08:53.111Z,0.00
2018-06-23T02:09:53.104Z,0.00
2018-06-23T02:10:53.101Z,0.00
2018-06-23T02:11:53.106Z,0.00
2018-06-23T02:12:53.092Z,0.00
2018-06-23T02:13:53.087Z,0.00
2018-06-23T02:14:53.084Z,0.00
2018-06-23T02:15:53.078Z,0.00
2018-06-23T02:16:53.079Z,0.00
2018-06-23T02:17:53.068Z,0.00
2018-06-23T02:18:53.065Z,0.00
2018-06-23T02:19:53.062Z,0.00
2018-06-23T02:20:53.060Z,0.00
2018-06-23T02:21:53.054Z,0.00
2018-06-23T02:22:53.048Z,0.00
2018-06-23T02:23:53.043Z,0.00
2018-06-23T02:24:53.039Z,0.00
2018-06-23T02:25:53.034Z,0.00
2018-06-23T02:26:53.030Z,0.00
2018-06-23T02:27:53.028Z,0.00
2018-06-23T02:28:53.021Z,0.00
2018-06-23T02:29:53.017Z,0.00
2018-06-23T02:30:53.013Z,0.00
2018-06-23T02:31:53.009Z,0.00
2018-06-23T02:32:53.001Z,0.00
2018-06-23T02:33:52.997Z,0.00
2018-06-23T02:34:52.994Z,0.00
2018-06-23T02:35:52.994Z,0.00
2018-06-23T02:36:52.984Z,0.00
2018-06-23T02:37:52.984Z,0.00
2018-06-23T02:38:52.975Z,0.00
2018-06-23T02:39:52.972Z,0.00
2018-06-23T02:40:52.964Z,0.00
2018-06-23T02:41:52.962Z,0.00
2018-06-23T02:42:52.957Z,0.00
2018-06-23T02:43:52.952Z,0.00
2018-06-23T02:44:52.947Z,0.00
2018-06-23T02:45:52.943Z,0.00
2018-06-23T02:46:52.939Z,0.00
2018-06-23T02:47:52.934Z,0.00
2018-06-23T02:48:52.928Z,0.00
2018-06-23T02:49:52.931Z,0.00
2018-06-23T02:50:52.923Z,0.00
2018-06-23T02:51:52.920Z,0.00
2018-06-23T02:52:52.910Z,0.00
2018-06-23T02:53:52.906Z,0.00
2018-06-23T02:54:52.900Z,0.00
2018-06-23T02:55:52.897Z,0.00
2018-06-23T02:56:52.897Z,0.00
2018-06-23T02:57:52.888Z,0.00
2018-06-23T02:58:52.884Z,0.00
2018-06-23T02:59:52.879Z,0.00
2018-06-23T03:00:52.873Z,0.00
2018-06-23T03:01:52.867Z,0.00
2018-06-23T03:02:52.864Z,0.00
2018-06-23T03:03:52.859Z,0.00
2018-06-23T03:04:52.853Z,0.00
2018-06-23T03:05:52.855Z,0.00
2018-06-23T03:06:52.845Z,0.00
2018-06-23T03:07:52.841Z,0.00
2018-06-23T03:08:52.837Z,0.00
2018-06-23T03:09:52.831Z,0.00
2018-06-23T03:10:52.826Z,0.00
2018-06-23T03:11:52.820Z,0.00
2018-06-23T03:12:52.815Z,0.00
2018-06-23T03:13:52.813Z,5.63
2018-06-23T03:14:52.807Z,5.63
2018-06-23T03:15:52.802Z,5.63
2018-06-23T03:16:52.798Z,5.63
2018-06-23T03:17:52.792Z,5.63
2018-06-23T03:18:52.788Z,5.63
2018-06-23T03:19:52.783Z,5.63
2018-06-23T03:20:52.776Z,5.63
2018-06-23T03:21:52.772Z,11.25
2018-06-23T03:22:52.767Z,11.25
2018-06-23T03:23:52.763Z,11.25
2018-06-23T03:24:52.755Z,11.25
2018-06-23T03:25:52.754Z,11.25
2018-06-23T03:26:52.746Z,11.25
2018-06-23T03:27:52.743Z,16.88
2018-06-23T03:28:52.742Z,16.88
2018-06-23T03:29:52.731Z,16.88
2018-06-23T03:30:52.729Z,16.88
2018-06-23T03:31:52.724Z,22.50
2018-06-23T03:32:52.717Z,22.50
2018-06-23T03:33:52.710Z,22.50
2018-06-23T03:34:52.708Z,22.50
2018-06-23T03:35:52.704Z,22.50
2018-06-23T03:36:52.697Z,28.13
2018-06-23T03:37:52.693Z,28.13
2018-06-23T03:38:52.690Z,28.13
2018-06-23T03:39:52.683Z,28.13
2018-06-23T03:40:52.677Z,28.13
2018-06-23T03:41:52.673Z,28.13
2018-06-23T03:42:52.669Z,28.13
2018-06-23T03:43:52.739Z,28.13
2018-06-23T03:44:52.661Z,28.13
2018-06-23T03:45:52.656Z,28.13
2018-06-23T03:46:52.649Z,28.13
2018-06-23T03:47:52.646Z,33.75
2018-06-23T03:48:52.637Z,33.75
2018-06-23T03:49:52.639Z,33.75
2018-06-23T03:50:52.631Z,33.75
2018-06-23T03:51:52.628Z,33.75
2018-06-23T03:52:52.622Z,39.38
2018-06-23T03:53:52.621Z,39.38
2018-06-23T03:54:52.616Z,39.38
2018-06-23T03:55:52.608Z,45.00
2018-06-23T03:56:52.602Z,45.00
2018-06-23T03:57:52.597Z,45.00
2018-06-23T03:58:52.592Z,50.63
2018-06-23T03:59:52.593Z,50.63
2018-06-23T04:00:52.583Z,50.63
2018-06-23T04:01:52.579Z,56.25
2018-06-23T04:02:52.575Z,56.25
2018-06-23T04:03:52.569Z,56.25
2018-06-23T04:04:52.565Z,61.88
2018-06-23T04:05:52.561Z,61.88
2018-06-23T04:06:52.560Z,61.88
2018-06-23T04:07:52.549Z,61.88
2018-06-23T04:08:52.544Z,61.88
2018-06-23T04:09:52.541Z,67.50
2018-06-23T04:10:52.536Z,67.50
2018-06-23T04:11:52.530Z,67.50
2018-06-23T04:12:52.527Z,67.50
2018-06-23T04:13:52.523Z,73.13
2018-06-23T04:14:52.517Z,73.13
2018-06-23T04:15:52.512Z,73.13
2018-06-23T04:16:52.578Z,73.13
2018-06-23T04:17:52.503Z,73.13
2018-06-23T04:18:52.498Z,78.75
2018-06-23T04:19:52.496Z,78.75
2018-06-23T04:20:52.489Z,78.75
2018-06-23T04:21:52.486Z,84.38
2018-06-23T04:22:52.484Z,95.63
2018-06-23T04:23:52.476Z,101.25
2018-06-23T04:24:52.472Z,112.50
2018-06-23T04:25:52.466Z,123.75
2018-06-23T04:26:52.462Z,129.38
2018-06-23T04:27:52.456Z,123.75
2018-06-23T04:28:52.470Z,118.13
2018-06-23T04:29:52.465Z,118.13
2018-06-23T04:30:52.445Z,123.75
2018-06-23T04:31:52.439Z,123.75
2018-06-23T04:32:52.432Z,118.13
2018-06-23T04:33:52.440Z,123.75
2018-06-23T04:34:52.429Z,123.75
2018-06-23T04:35:52.422Z,135.00
2018-06-23T04:36:52.414Z,140.63
2018-06-23T04:37:52.411Z,146.25
2018-06-23T04:38:52.407Z,146.25
2018-06-23T04:39:52.404Z,140.63
2018-06-23T04:40:52.398Z,135.00
2018-06-23T04:41:52.393Z,129.38
2018-06-23T04:42:52.388Z,123.75
2018-06-23T04:43:52.387Z,129.38
2018-06-23T04:44:52.380Z,129.38
2018-06-23T04:45:52.374Z,129.38
2018-06-23T04:46:52.374Z,129.38
2018-06-23T04:47:52.371Z,123.75
2018-06-23T04:48:52.363Z,129.38
2018-06-23T04:49:52.357Z,140.63
2018-06-23T04:50:52.354Z,140.63
2018-06-23T04:51:52.348Z,140.63
2018-06-23T04:52:52.348Z,140.63
2018-06-23T04:53:52.342Z,146.25
2018-06-23T04:54:52.338Z,157.50
2018-06-23T04:55:52.335Z,157.50
2018-06-23T04:56:52.328Z,157.50
2018-06-23T04:57:52.325Z,157.50
2018-06-23T04:58:52.321Z,151.88
2018-06-23T04:59:52.318Z,151.88
2018-06-23T05:00:52.313Z,151.88
2018-06-23T05:01:52.311Z,140.63
2018-06-23T05:02:52.303Z,146.25
2018-06-23T05:03:52.303Z,146.25
2018-06-23T05:04:52.294Z,146.25
2018-06-23T05:05:52.292Z,146.25
2018-06-23T05:06:52.289Z,146.25
2018-06-23T05:07:52.283Z,151.88
2018-06-23T05:08:52.278Z,157.50
2018-06-23T05:09:52.276Z,157.50
2018-06-23T05:10:53.443Z,151.88
2018-06-23T05:11:52.265Z,140.63
2018-06-23T05:12:52.264Z,140.63
2018-06-23T05:13:52.258Z,146.25
2018-06-23T05:14:52.255Z,163.13
2018-06-23T05:15:52.253Z,157.50
2018-06-23T05:16:52.246Z,151.88
2018-06-23T05:17:52.241Z,140.63
2018-06-23T05:18:52.237Z,140.63
2018-06-23T05:19:52.234Z,146.25
2018-06-23T05:20:52.233Z,146.25
2018-06-23T05:21:52.224Z,140.63
2018-06-23T05:22:52.218Z,146.25
2018-06-23T05:23:52.217Z,135.00
2018-06-23T05:24:52.209Z,140.63
2018-06-23T05:25:52.250Z,146.25
2018-06-23T05:26:52.204Z,135.00
2018-06-23T05:27:52.200Z,151.88
2018-06-23T05:28:52.196Z,163.13
2018-06-23T05:29:52.191Z,168.75
2018-06-23T05:30:52.188Z,163.13
2018-06-23T05:31:52.357Z,163.13
2018-06-23T05:32:52.180Z,168.75
2018-06-23T05:33:52.174Z,174.38
2018-06-23T05:34:52.171Z,191.25
2018-06-23T05:35:52.167Z,213.75
2018-06-23T05:36:52.163Z,264.38
2018-06-23T05:37:52.161Z,286.88
2018-06-23T05:38:52.154Z,247.50
2018-06-23T05:39:52.152Z,225.00
2018-06-23T05:40:52.145Z,225.00
2018-06-23T05:41:52.145Z,230.63
2018-06-23T05:42:52.138Z,196.88
2018-06-23T05:43:52.134Z,208.13
2018-06-23T05:44:52.135Z,230.63
2018-06-23T05:45:52.128Z,219.38
2018-06-23T05:46:52.122Z,191.25
2018-06-23T05:47:52.117Z,168.75
2018-06-23T05:48:52.113Z,168.75
2018-06-23T05:49:52.110Z,174.38
2018-06-23T05:50:52.106Z,185.63
2018-06-23T05:51:52.102Z,225.00
2018-06-23T05:52:52.098Z,230.63
2018-06-23T05:53:52.093Z,253.13
2018-06-23T05:54:52.089Z,275.63
2018-06-23T05:55:52.088Z,286.88
2018-06-23T05:56:52.084Z,241.88
2018-06-23T05:57:52.078Z,208.13
2018-06-23T05:58:52.075Z,191.25
2018-06-23T05:59:52.070Z,185.63
2018-06-23T06:00:52.069Z,202.50
2018-06-23T06:01:52.064Z,236.25
2018-06-23T06:02:52.061Z,281.25
2018-06-23T06:03:52.057Z,315.00
2018-06-23T06:04:52.055Z,281.25
2018-06-23T06:05:52.050Z,298.13
2018-06-23T06:06:52.047Z,320.63
2018-06-23T06:07:52.045Z,315.00
2018-06-23T06:08:52.039Z,286.88
2018-06-23T06:09:52.037Z,275.63
2018-06-23T06:10:52.032Z,292.50
2018-06-23T06:11:52.029Z,298.13
2018-06-23T06:12:52.042Z,303.75
2018-06-23T06:13:52.021Z,298.13
2018-06-23T06:14:52.019Z,298.13
2018-06-23T06:15:52.014Z,286.88
2018-06-23T06:16:52.009Z,275.63
2018-06-23T06:17:52.005Z,292.50
2018-06-23T06:18:52.004Z,286.88
2018-06-23T06:19:52.002Z,286.88
2018-06-23T06:20:51.994Z,281.25
2018-06-23T06:21:51.990Z,253.13
2018-06-23T06:22:51.987Z,270.00
2018-06-23T06:23:51.993Z,292.50
2018-06-23T06:24:51.977Z,309.38
2018-06-23T06:25:51.974Z,320.63
2018-06-23T06:26:51.972Z,348.75
2018-06-23T06:27:51.973Z,376.88
2018-06-23T06:28:51.963Z,399.38
2018-06-23T06:29:51.958Z,382.50
2018-06-23T06:30:51.954Z,348.75
2018-06-23T06:31:51.952Z,343.13
2018-06-23T06:32:51.947Z,320.63
2018-06-23T06:33:51.940Z,326.25
2018-06-23T06:34:51.937Z,326.25
2018-06-23T06:35:51.935Z,337.50
2018-06-23T06:36:51.929Z,354.38
2018-06-23T06:37:51.925Z,354.38
2018-06-23T06:38:51.923Z,365.63
2018-06-23T06:39:51.919Z,388.13
2018-06-23T06:40:51.915Z,393.75
2018-06-23T06:41:51.915Z,405.00
2018-06-23T06:42:51.908Z,405.00
2018-06-23T06:43:51.904Z,416.25
2018-06-23T06:44:51.897Z,410.63
2018-06-23T06:45:51.894Z,410.63
2018-06-23T06:46:51.892Z,438.75
2018-06-23T06:47:51.891Z,410.63
2018-06-23T06:48:51.885Z,416.25
2018-06-23T06:49:51.881Z,360.00
2018-06-23T06:50:51.917Z,371.25
2018-06-23T06:51:51.872Z,309.38
2018-06-23T06:52:51.872Z,326.25
2018-06-23T06:53:51.865Z,309.38
2018-06-23T06:54:51.860Z,264.38
2018-06-23T06:55:51.861Z,247.50
2018-06-23T06:56:51.853Z,241.88
2018-06-23T06:57:51.851Z,236.25
2018-06-23T06:58:51.853Z,275.63
2018-06-23T06:59:51.844Z,303.75
2018-06-23T07:00:51.840Z,320.63
2018-06-23T07:01:51.834Z,286.88
2018-06-23T07:02:51.834Z,320.63
2018-06-23T07:03:51.829Z,326.25
2018-06-23T07:04:51.824Z,315.00
2018-06-23T07:05:51.824Z,326.25
2018-06-23T07:06:51.818Z,343.13
2018-06-23T07:07:51.815Z,343.13
2018-06-23T07:08:51.835Z,320.63
2018-06-23T07:09:51.808Z,326.25
2018-06-23T07:10:51.797Z,343.13
2018-06-23T07:11:51.800Z,371.25
2018-06-23T07:12:51.797Z,376.88
2018-06-23T07:13:51.793Z,343.13
2018-06-23T07:14:51.791Z,331.88
2018-06-23T07:15:51.790Z,354.38
2018-06-23T07:16:51.783Z,354.38
2018-06-23T07:17:51.781Z,315.00
2018-06-23T07:18:51.772Z,303.75
2018-06-23T07:19:51.773Z,303.75
2018-06-23T07:20:51.772Z,360.00
2018-06-23T07:21:51.766Z,371.25
2018-06-23T07:22:51.765Z,365.63
2018-06-23T07:23:51.864Z,337.50
2018-06-23T07:24:51.755Z,376.88
2018-06-23T07:25:51.754Z,348.75
2018-06-23T07:26:51.792Z,326.25
2018-06-23T07:27:51.746Z,298.13
2018-06-23T07:28:51.741Z,281.25
2018-06-23T07:29:51.740Z,315.00
2018-06-23T07:30:51.783Z,331.88
2018-06-23T07:31:51.732Z,315.00
2018-06-23T07:32:51.728Z,281.25
2018-06-23T07:33:51.724Z,298.13
2018-06-23T07:34:51.880Z,331.88
2018-06-23T07:35:51.718Z,371.25
2018-06-23T07:36:51.713Z,388.13
2018-06-23T07:37:51.709Z,399.38
2018-06-23T07:38:51.706Z,393.75
2018-06-23T07:39:51.706Z,421.88
2018-06-23T07:40:51.702Z,433.13
2018-06-23T07:41:51.701Z,450.00
2018-06-23T07:42:51.697Z,444.38
2018-06-23T07:43:51.692Z,466.88
2018-06-23T07:44:51.687Z,433.13
2018-06-23T07:45:51.685Z,393.75
2018-06-23T07:46:51.683Z,388.13
2018-06-23T07:47:51.680Z,382.50
2018-06-23T07:48:51.678Z,360.00
2018-06-23T07:49:51.675Z,331.88
2018-06-23T07:50:51.672Z,298.13
2018-06-23T07:51:51.669Z,281.25
2018-06-23T07:52:51.668Z,292.50
2018-06-23T07:53:51.664Z,275.63
2018-06-23T07:54:51.661Z,253.13
2018-06-23T07:55:51.661Z,219.38
2018-06-23T07:56:51.655Z,213.75
2018-06-23T07:57:51.652Z,225.00
2018-06-23T07:58:51.650Z,281.25
2018-06-23T07:59:51.649Z,309.38
2018-06-23T08:00:51.641Z,281.25
2018-06-23T08:01:51.644Z,281.25
2018-06-23T08:02:51.638Z,275.63
2018-06-23T08:03:51.635Z,258.75
2018-06-23T08:04:51.632Z,298.13
2018-06-23T08:05:51.648Z,343.13
2018-06-23T08:06:51.626Z,365.63
2018-06-23T08:07:51.623Z,382.50
2018-06-23T08:08:51.621Z,382.50
2018-06-23T08:09:51.617Z,354.38
2018-06-23T08:10:51.617Z,348.75
2018-06-23T08:11:51.613Z,331.88
2018-06-23T08:12:51.615Z,315.00
2018-06-23T08:13:51.608Z,320.63
2018-06-23T08:14:51.603Z,303.75
2018-06-23T08:15:51.605Z,309.38
2018-06-23T08:16:51.598Z,286.88
2018-06-23T08:17:51.594Z,275.63
2018-06-23T08:18:51.595Z,264.38
2018-06-23T08:19:51.591Z,247.50
2018-06-23T08:20:51.586Z,253.13
2018-06-23T08:21:51.582Z,241.88
2018-06-23T08:22:51.581Z,236.25
2018-06-23T08:23:51.578Z,258.75
2018-06-23T08:24:51.593Z,253.13
2018-06-23T08:25:51.572Z,258.75
2018-06-23T08:26:51.570Z,270.00
2018-06-23T08:27:51.566Z,264.38
2018-06-23T08:28:51.564Z,253.13
2018-06-23T08:29:51.563Z,253.13
2018-06-23T08:30:51.557Z,264.38
2018-06-23T08:31:51.569Z,281.25
2018-06-23T08:32:51.550Z,292.50
2018-06-23T08:33:51.546Z,320.63
2018-06-23T08:34:51.547Z,348.75
2018-06-23T08:35:51.547Z,365.63
2018-06-23T08:36:51.540Z,382.50
2018-06-23T08:37:51.592Z,399.38
2018-06-23T08:38:51.534Z,444.38
2018-06-23T08:39:51.533Z,483.75
2018-06-23T08:40:51.529Z,500.63
2018-06-23T08:41:51.527Z,483.75
2018-06-23T08:42:51.525Z,461.25
2018-06-23T08:43:51.525Z,444.38
2018-06-23T08:44:51.520Z,438.75
2018-06-23T08:45:51.518Z,438.75
2018-06-23T08:46:51.514Z,421.88
2018-06-23T08:47:51.513Z,433.13
2018-06-23T08:48:51.513Z,427.50
2018-06-23T08:49:51.509Z,444.38
2018-06-23T08:50:51.509Z,438.75
2018-06-23T08:51:51.510Z,410.63
2018-06-23T08:52:51.502Z,388.13
2018-06-23T08:53:51.501Z,371.25
2018-06-23T08:54:51.497Z,382.50
2018-06-23T08:55:51.497Z,393.75
2018-06-23T08:56:51.559Z,393.75
2018-06-23T08:57:51.491Z,393.75
2018-06-23T08:58:51.490Z,421.88
2018-06-23T08:59:51.488Z,472.50
2018-06-23T09:00:51.485Z,517.50
2018-06-23T09:01:51.556Z,545.63
2018-06-23T09:02:51.552Z,568.13
2018-06-23T09:03:51.478Z,607.50
2018-06-23T09:04:51.476Z,613.13
2018-06-23T09:05:51.487Z,613.13
2018-06-23T09:06:51.476Z,607.50
2018-06-23T09:07:51.471Z,579.38
2018-06-23T09:08:51.472Z,568.13
2018-06-23T09:09:51.467Z,568.13
2018-06-23T09:10:51.465Z,568.13
2018-06-23T09:11:51.463Z,585.00
2018-06-23T09:12:51.461Z,568.13
2018-06-23T09:13:51.461Z,568.13
2018-06-23T09:14:51.459Z,556.88
2018-06-23T09:15:51.460Z,573.75
2018-06-23T09:16:51.498Z,585.00
2018-06-23T09:17:51.455Z,618.75
2018-06-23T09:18:51.457Z,663.75
2018-06-23T09:19:51.453Z,691.88
2018-06-23T09:20:51.456Z,714.38
2018-06-23T09:21:51.455Z,720.00
2018-06-23T09:22:51.450Z,708.75
2018-06-23T09:23:51.451Z,714.38
2018-06-23T09:24:51.450Z,714.38
2018-06-23T09:25:51.469Z,708.75
2018-06-23T09:26:51.446Z,697.50
2018-06-23T09:27:51.444Z,680.63
2018-06-23T09:28:51.442Z,675.00
2018-06-23T09:29:51.442Z,663.75
2018-06-23T09:30:51.440Z,663.75
2018-06-23T09:31:51.440Z,663.75
2018-06-23T09:32:51.441Z,680.63
2018-06-23T09:33:51.438Z,714.38
2018-06-23T09:34:51.436Z,703.13
2018-06-23T09:35:51.435Z,691.88
2018-06-23T09:36:51.433Z,691.88
2018-06-23T09:37:51.438Z,675.00
2018-06-23T09:38:51.432Z,652.50
2018-06-23T09:39:51.431Z,624.38
2018-06-23T09:40:51.430Z,585.00
2018-06-23T09:41:51.429Z,551.25
2018-06-23T09:42:51.427Z,540.00
2018-06-23T09:43:51.428Z,545.63
2018-06-23T09:44:51.427Z,489.38
2018-06-23T09:45:51.451Z,466.88
2018-06-23T09:46:51.427Z,461.25
2018-06-23T09:47:51.424Z,472.50
2018-06-23T09:48:51.421Z,461.25
2018-06-23T09:49:51.419Z,455.63
2018-06-23T09:50:51.420Z,455.63
2018-06-23T09:51:51.420Z,455.63
2018-06-23T09:52:51.415Z,455.63
2018-06-23T09:53:51.463Z,483.75
2018-06-23T09:54:51.415Z,511.88
2018-06-23T09:55:51.420Z,528.75
2018-06-23T09:56:51.413Z,540.00
2018-06-23T09:57:51.412Z,562.50
2018-06-23T09:58:51.412Z,579.38
2018-06-23T09:59:51.417Z,613.13
2018-06-23T10:00:51.410Z,635.63
2018-06-23T10:01:51.405Z,641.25
2018-06-23T10:02:51.408Z,596.25
2018-06-23T10:03:51.407Z,556.88
2018-06-23T10:04:51.403Z,556.88
2018-06-23T10:05:51.405Z,551.25
2018-06-23T10:06:51.405Z,506.25
2018-06-23T10:07:51.402Z,483.75
2018-06-23T10:08:51.399Z,461.25
2018-06-23T10:09:51.404Z,444.38
2018-06-23T10:10:52.032Z,416.25
2018-06-23T10:11:51.398Z,472.50
2018-06-23T10:12:51.396Z,489.38
2018-06-23T10:13:51.395Z,500.63
2018-06-23T10:14:51.396Z,511.88
2018-06-23T10:15:51.396Z,551.25
2018-06-23T10:16:51.395Z,551.25
2018-06-23T10:17:51.394Z,556.88
2018-06-23T10:18:51.392Z,534.38
2018-06-23T10:19:51.393Z,523.13
2018-06-23T10:20:51.392Z,573.75
2018-06-23T10:21:51.389Z,601.88
2018-06-23T10:22:51.393Z,635.63
2018-06-23T10:23:51.391Z,613.13
2018-06-23T10:24:51.392Z,652.50
2018-06-23T10:25:51.388Z,658.13
2018-06-23T10:26:51.388Z,618.75
2018-06-23T10:27:51.388Z,607.50
2018-06-23T10:28:51.388Z,573.75
2018-06-23T10:29:51.386Z,556.88
2018-06-23T10:30:51.391Z,545.63
2018-06-23T10:31:51.386Z,590.63
2018-06-23T10:32:51.385Z,691.88
2018-06-23T10:33:51.385Z,596.25
2018-06-23T10:34:51.384Z,545.63
2018-06-23T10:35:51.386Z,523.13
2018-06-23T10:36:51.384Z,551.25
2018-06-23T10:37:51.383Z,568.13
2018-06-23T10:38:51.383Z,618.75
2018-06-23T10:39:51.383Z,630.00
2018-06-23T10:40:51.386Z,680.63
2018-06-23T10:41:51.381Z,720.00
2018-06-23T10:42:51.379Z,725.63
2018-06-23T10:43:51.380Z,787.50
2018-06-23T10:44:51.378Z,838.13
2018-06-23T10:45:51.375Z,759.38
2018-06-23T10:46:51.377Z,765.00
2018-06-23T10:47:51.377Z,855.00
2018-06-23T10:48:51.375Z,810.00
2018-06-23T10:49:51.375Z,793.13
2018-06-23T10:50:51.376Z,821.25
2018-06-23T10:51:51.372Z,860.63
2018-06-23T10:52:51.373Z,849.38
2018-06-23T10:53:51.373Z,765.00
2018-06-23T10:54:51.372Z,765.00
2018-06-23T10:55:51.374Z,815.63
2018-06-23T10:56:51.372Z,770.63
2018-06-23T10:57:51.401Z,697.50
2018-06-23T10:58:51.373Z,703.13
2018-06-23T10:59:51.373Z,720.00
2018-06-23T11:00:51.371Z,748.13
2018-06-23T11:01:51.371Z,736.88
2018-06-23T11:02:51.371Z,787.50
2018-06-23T11:03:51.372Z,815.63
2018-06-23T11:04:51.484Z,804.38
2018-06-23T11:05:51.372Z,776.25
2018-06-23T11:06:51.375Z,675.00
2018-06-23T11:07:51.375Z,663.75
2018-06-23T11:08:51.375Z,607.50
2018-06-23T11:09:51.376Z,596.25
2018-06-23T11:10:51.380Z,652.50
2018-06-23T11:11:51.377Z,646.88
2018-06-23T11:12:51.376Z,573.75
2018-06-23T11:13:51.374Z,585.00
2018-06-23T11:14:51.376Z,663.75
2018-06-23T11:15:51.384Z,652.50
2018-06-23T11:16:51.376Z,691.88
2018-06-23T11:17:51.376Z,720.00
2018-06-23T11:18:51.378Z,714.38
2018-06-23T11:19:51.379Z,720.00
2018-06-23T11:20:51.380Z,781.88
2018-06-23T11:21:51.378Z,916.88
2018-06-23T11:22:51.378Z,725.63
2018-06-23T11:23:51.381Z,686.25
2018-06-23T11:24:51.380Z,635.63
2018-06-23T11:25:51.381Z,635.63
2018-06-23T11:26:51.382Z,748.13
2018-06-23T11:27:51.381Z,939.38
2018-06-23T11:28:51.382Z,1361.25
2018-06-23T11:29:51.377Z,984.38
2018-06-23T11:30:51.383Z,945.00
2018-06-23T11:31:51.383Z,1074.38
2018-06-23T11:32:51.384Z,1676.25
2018-06-23T11:33:51.385Z,1029.38
2018-06-23T11:34:51.386Z,933.75
2018-06-23T11:35:51.388Z,956.25
2018-06-23T11:36:51.388Z,1029.38
2018-06-23T11:37:51.388Z,1299.38
2018-06-23T11:38:51.388Z,1265.63
2018-06-23T11:39:51.391Z,1271.25
2018-06-23T11:40:51.389Z,843.75
2018-06-23T11:41:51.391Z,720.00
2018-06-23T11:42:51.392Z,652.50
2018-06-23T11:43:51.393Z,618.75
2018-06-23T11:44:51.447Z,596.25
2018-06-23T11:45:51.398Z,585.00
2018-06-23T11:46:51.398Z,590.63
2018-06-23T11:47:51.399Z,596.25
2018-06-23T11:48:51.400Z,556.88
2018-06-23T11:49:51.401Z,551.25
2018-06-23T11:50:51.399Z,523.13
2018-06-23T11:51:51.401Z,511.88
2018-06-23T11:52:51.401Z,534.38
2018-06-23T11:53:51.402Z,596.25
2018-06-23T11:54:51.400Z,630.00
2018-06-23T11:55:51.404Z,669.38
2018-06-23T11:56:51.405Z,675.00
2018-06-23T11:57:51.404Z,714.38
2018-06-23T11:58:51.405Z,787.50
2018-06-23T11:59:51.408Z,798.75
2018-06-23T12:00:51.407Z,967.50
2018-06-23T12:01:51.443Z,888.75
2018-06-23T12:02:51.407Z,888.75
2018-06-23T12:03:51.408Z,849.38
2018-06-23T12:04:51.407Z,815.63
2018-06-23T12:05:51.408Z,821.25
2018-06-23T12:06:51.416Z,826.88
2018-06-23T12:07:51.410Z,838.13
2018-06-23T12:08:51.411Z,967.50
2018-06-23T12:09:51.409Z,871.88
2018-06-23T12:10:51.412Z,776.25
2018-06-23T12:11:51.412Z,877.50
2018-06-23T12:12:51.413Z,736.88
2018-06-23T12:13:51.429Z,675.00
2018-06-23T12:14:51.417Z,669.38
2018-06-23T12:15:51.415Z,697.50
2018-06-23T12:16:51.416Z,675.00
2018-06-23T12:17:51.415Z,669.38
2018-06-23T12:18:51.417Z,686.25
2018-06-23T12:19:51.418Z,703.13
2018-06-23T12:20:51.419Z,708.75
2018-06-23T12:21:51.418Z,725.63
2018-06-23T12:22:51.420Z,725.63
2018-06-23T12:23:51.423Z,714.38
2018-06-23T12:24:51.420Z,703.13
2018-06-23T12:25:51.423Z,675.00
2018-06-23T12:26:51.423Z,950.63
2018-06-23T12:27:51.424Z,855.00
2018-06-23T12:28:51.422Z,798.75
2018-06-23T12:29:51.423Z,669.38
2018-06-23T12:30:51.427Z,652.50
2018-06-23T12:31:51.433Z,675.00
2018-06-23T12:32:51.425Z,1310.63
2018-06-23T12:33:51.425Z,1175.63
2018-06-23T12:34:51.428Z,1243.13
2018-06-23T12:35:51.429Z,1040.63
2018-06-23T12:36:51.432Z,1130.63
2018-06-23T12:37:51.429Z,826.88
2018-06-23T12:38:51.428Z,798.75
2018-06-23T12:39:51.429Z,815.63
2018-06-23T12:40:51.429Z,855.00
2018-06-23T12:41:51.431Z,815.63
2018-06-23T12:42:51.431Z,1006.88